sensor_id;sensor_type;location;lat;lon;timestamp;temperature;humidity
52159;DHT22;38145;53.182;6.284;2022-07-09T00:01:27;17.10;99.90
52159;DHT22;38145;53.182;6.284;2022-07-09T00:03:53;17.00;99.90
52159;DHT22;38145;53.182;6.284;2022-07-09T00:06:21;17.00;99.90
52159;DHT22;38145;53.182;6.284;2022-07-09T00:08:47;17.00;99.90
52159;DHT22;38145;53.182;6.284;2022-07-09T00:11:15;16.90;99.90
52159;DHT22;38145;53.182;6.284;2022-07-09T00:13:41;17.00;99.90
52159;DHT22;38145;53.182;6.284;2022-07-09T00:16:09;16.90;99.90
52159;DHT22;38145;53.182;6.284;2022-07-09T00:18:36;16.90;99.90
52159;DHT22;38145;53.182;6.284;2022-07-09T00:21:04;16.80;99.90
52159;DHT22;38145;53.182;6.284;2022-07-09T00:23:34;16.90;99.90
52159;DHT22;38145;53.182;6.284;2022-07-09T00:26:06;16.80;99.90
52159;DHT22;38145;53.182;6.284;2022-07-09T00:28:33;16.80;99.90
52159;DHT22;38145;53.182;6.284;2022-07-09T00:31:03;16.90;99.90
52159;DHT22;38145;53.182;6.284;2022-07-09T00:33:30;16.90;99.90
52159;DHT22;38145;53.182;6.284;2022-07-09T00:35:56;16.90;99.90
52159;DHT22;38145;53.182;6.284;2022-07-09T00:38:23;16.90;99.90
52159;DHT22;38145;53.182;6.284;2022-07-09T00:40:50;16.90;99.90
52159;DHT22;38145;53.182;6.284;2022-07-09T00:43:20;16.90;99.90
52159;DHT22;38145;53.182;6.284;2022-07-09T00:45:48;16.80;99.90
52159;DHT22;38145;53.182;6.284;2022-07-09T00:48:16;16.90;99.90
52159;DHT22;38145;53.182;6.284;2022-07-09T00:50:44;16.90;99.90
52159;DHT22;38145;53.182;6.284;2022-07-09T00:53:19;17.00;99.90
52159;DHT22;38145;53.182;6.284;2022-07-09T00:55:48;16.90;99.90
52159;DHT22;38145;53.182;6.284;2022-07-09T00:58:16;17.00;99.90
52159;DHT22;38145;53.182;6.284;2022-07-09T01:00:44;17.00;99.90
52159;DHT22;38145;53.182;6.284;2022-07-09T01:03:12;16.90;99.90
52159;DHT22;38145;53.182;6.284;2022-07-09T01:05:41;17.00;99.90
52159;DHT22;38145;53.182;6.284;2022-07-09T01:08:09;17.00;99.90
52159;DHT22;38145;53.182;6.284;2022-07-09T01:10:38;17.00;99.90
52159;DHT22;38145;53.182;6.284;2022-07-09T01:13:06;17.00;99.90
52159;DHT22;38145;53.182;6.284;2022-07-09T01:15:34;17.00;99.90
52159;DHT22;38145;53.182;6.284;2022-07-09T01:18:04;17.00;99.90
52159;DHT22;38145;53.182;6.284;2022-07-09T01:20:31;17.00;99.90
52159;DHT22;38145;53.182;6.284;2022-07-09T01:23:00;16.90;99.90
52159;DHT22;38145;53.182;6.284;2022-07-09T01:25:34;16.90;99.90
52159;DHT22;38145;53.182;6.284;2022-07-09T01:28:03;16.90;99.90
52159;DHT22;38145;53.182;6.284;2022-07-09T01:30:34;16.90;99.90
52159;DHT22;38145;53.182;6.284;2022-07-09T01:33:02;16.90;99.90
52159;DHT22;38145;53.182;6.284;2022-07-09T01:35:33;16.80;99.90
52159;DHT22;38145;53.182;6.284;2022-07-09T01:38:00;16.80;99.90
52159;DHT22;38145;53.182;6.284;2022-07-09T01:40:27;16.80;99.90
52159;DHT22;38145;53.182;6.284;2022-07-09T01:43:00;16.80;99.90
52159;DHT22;38145;53.182;6.284;2022-07-09T01:45:31;16.80;99.90
52159;DHT22;38145;53.182;6.284;2022-07-09T01:47:57;16.80;99.90
52159;DHT22;38145;53.182;6.284;2022-07-09T01:50:24;16.80;99.90
52159;DHT22;38145;53.182;6.284;2022-07-09T01:52:51;16.70;99.90
52159;DHT22;38145;53.182;6.284;2022-07-09T01:55:18;16.80;99.90
52159;DHT22;38145;53.182;6.284;2022-07-09T01:57:45;16.80;99.90
52159;DHT22;38145;53.182;6.284;2022-07-09T02:00:14;16.80;99.90
52159;DHT22;38145;53.182;6.284;2022-07-09T02:02:41;16.90;99.90
52159;DHT22;38145;53.182;6.284;2022-07-09T02:05:09;16.80;99.90
52159;DHT22;38145;53.182;6.284;2022-07-09T02:07:38;16.90;99.90
52159;DHT22;38145;53.182;6.284;2022-07-09T02:10:05;16.80;99.90
52159;DHT22;38145;53.182;6.284;2022-07-09T02:12:34;16.90;99.90
52159;DHT22;38145;53.182;6.284;2022-07-09T02:15:03;16.90;99.90
52159;DHT22;38145;53.182;6.284;2022-07-09T02:17:32;16.90;99.90
52159;DHT22;38145;53.182;6.284;2022-07-09T02:19:58;16.80;99.90
52159;DHT22;38145;53.182;6.284;2022-07-09T02:22:27;16.90;99.90
52159;DHT22;38145;53.182;6.284;2022-07-09T02:24:55;16.80;99.90
52159;DHT22;38145;53.182;6.284;2022-07-09T02:27:22;16.90;99.90
52159;DHT22;38145;53.182;6.284;2022-07-09T02:29:49;16.80;99.90
52159;DHT22;38145;53.182;6.284;2022-07-09T02:32:15;16.80;99.90
52159;DHT22;38145;53.182;6.284;2022-07-09T02:34:43;16.90;99.90
52159;DHT22;38145;53.182;6.284;2022-07-09T02:37:10;16.80;99.90
52159;DHT22;38145;53.182;6.284;2022-07-09T02:39:37;16.80;99.90
52159;DHT22;38145;53.182;6.284;2022-07-09T02:42:05;16.90;99.90
52159;DHT22;38145;53.182;6.284;2022-07-09T02:44:31;16.80;99.90
52159;DHT22;38145;53.182;6.284;2022-07-09T02:46:58;16.90;99.90
52159;DHT22;38145;53.182;6.284;2022-07-09T02:49:26;16.80;99.90
52159;DHT22;38145;53.182;6.284;2022-07-09T02:51:56;16.80;99.90
52159;DHT22;38145;53.182;6.284;2022-07-09T02:54:23;16.80;99.90
52159;DHT22;38145;53.182;6.284;2022-07-09T02:56:58;16.70;99.90
52159;DHT22;38145;53.182;6.284;2022-07-09T02:59:27;16.70;99.90
52159;DHT22;38145;53.182;6.284;2022-07-09T03:01:54;16.70;99.90
52159;DHT22;38145;53.182;6.284;2022-07-09T03:04:21;16.70;99.90
52159;DHT22;38145;53.182;6.284;2022-07-09T03:06:48;16.60;99.90
52159;DHT22;38145;53.182;6.284;2022-07-09T03:09:14;16.60;99.90
52159;DHT22;38145;53.182;6.284;2022-07-09T03:11:43;16.60;99.90
52159;DHT22;38145;53.182;6.284;2022-07-09T03:14:10;16.50;99.90
52159;DHT22;38145;53.182;6.284;2022-07-09T03:16:37;16.50;99.90
52159;DHT22;38145;53.182;6.284;2022-07-09T03:19:06;16.60;99.90
52159;DHT22;38145;53.182;6.284;2022-07-09T03:21:37;16.50;99.90
52159;DHT22;38145;53.182;6.284;2022-07-09T03:24:04;16.60;99.90
52159;DHT22;38145;53.182;6.284;2022-07-09T03:26:32;16.60;99.90
52159;DHT22;38145;53.182;6.284;2022-07-09T03:28:59;16.60;99.90
52159;DHT22;38145;53.182;6.284;2022-07-09T03:31:26;16.50;99.90
52159;DHT22;38145;53.182;6.284;2022-07-09T03:33:53;16.50;99.90
52159;DHT22;38145;53.182;6.284;2022-07-09T03:36:20;16.50;99.90
52159;DHT22;38145;53.182;6.284;2022-07-09T03:38:49;16.60;99.90
52159;DHT22;38145;53.182;6.284;2022-07-09T03:41:17;16.40;99.90
52159;DHT22;38145;53.182;6.284;2022-07-09T03:43:43;16.50;99.90
52159;DHT22;38145;53.182;6.284;2022-07-09T03:46:14;16.40;99.90
52159;DHT22;38145;53.182;6.284;2022-07-09T03:48:44;16.40;99.90
52159;DHT22;38145;53.182;6.284;2022-07-09T03:51:13;16.40;99.90
52159;DHT22;38145;53.182;6.284;2022-07-09T03:53:41;16.40;99.90
52159;DHT22;38145;53.182;6.284;2022-07-09T03:56:08;16.40;99.90
52159;DHT22;38145;53.182;6.284;2022-07-09T03:58:36;16.50;99.90
52159;DHT22;38145;53.182;6.284;2022-07-09T04:01:03;16.40;99.90
52159;DHT22;38145;53.182;6.284;2022-07-09T04:03:31;16.40;99.90
52159;DHT22;38145;53.182;6.284;2022-07-09T04:06:01;16.50;99.90
52159;DHT22;38145;53.182;6.284;2022-07-09T04:08:28;16.50;99.90
52159;DHT22;38145;53.182;6.284;2022-07-09T04:10:56;16.40;99.90
52159;DHT22;38145;53.182;6.284;2022-07-09T04:13:22;16.50;99.90
52159;DHT22;38145;53.182;6.284;2022-07-09T04:15:52;16.40;99.90
52159;DHT22;38145;53.182;6.284;2022-07-09T04:18:21;16.50;99.90
52159;DHT22;38145;53.182;6.284;2022-07-09T04:20:48;16.50;99.90
52159;DHT22;38145;53.182;6.284;2022-07-09T04:23:15;16.40;99.90
52159;DHT22;38145;53.182;6.284;2022-07-09T04:25:42;16.50;99.90
52159;DHT22;38145;53.182;6.284;2022-07-09T04:28:10;16.50;99.90
52159;DHT22;38145;53.182;6.284;2022-07-09T04:30:36;16.50;99.90
52159;DHT22;38145;53.182;6.284;2022-07-09T04:33:03;16.50;99.90
52159;DHT22;38145;53.182;6.284;2022-07-09T04:35:32;16.60;99.90
52159;DHT22;38145;53.182;6.284;2022-07-09T04:37:59;16.50;99.90
52159;DHT22;38145;53.182;6.284;2022-07-09T04:40:27;16.60;99.90
52159;DHT22;38145;53.182;6.284;2022-07-09T04:42:56;16.60;99.90
52159;DHT22;38145;53.182;6.284;2022-07-09T04:45:24;16.60;99.90
52159;DHT22;38145;53.182;6.284;2022-07-09T04:47:51;16.60;99.90
52159;DHT22;38145;53.182;6.284;2022-07-09T04:50:18;16.60;99.90
52159;DHT22;38145;53.182;6.284;2022-07-09T04:52:44;16.60;99.90
52159;DHT22;38145;53.182;6.284;2022-07-09T04:55:10;16.60;99.90
52159;DHT22;38145;53.182;6.284;2022-07-09T04:57:38;16.70;99.90
52159;DHT22;38145;53.182;6.284;2022-07-09T05:00:06;16.70;99.90
52159;DHT22;38145;53.182;6.284;2022-07-09T05:02:35;16.70;99.90
52159;DHT22;38145;53.182;6.284;2022-07-09T05:05:02;16.70;99.90
52159;DHT22;38145;53.182;6.284;2022-07-09T05:07:31;16.70;99.90
52159;DHT22;38145;53.182;6.284;2022-07-09T05:10:12;16.80;99.90
52159;DHT22;38145;53.182;6.284;2022-07-09T05:12:38;16.90;99.90
52159;DHT22;38145;53.182;6.284;2022-07-09T05:15:07;16.90;99.90
52159;DHT22;38145;53.182;6.284;2022-07-09T05:17:35;17.00;99.90
52159;DHT22;38145;53.182;6.284;2022-07-09T05:20:05;17.00;99.90
52159;DHT22;38145;53.182;6.284;2022-07-09T05:22:33;17.00;99.90
52159;DHT22;38145;53.182;6.284;2022-07-09T05:25:00;17.10;99.90
52159;DHT22;38145;53.182;6.284;2022-07-09T05:27:28;17.00;99.90
52159;DHT22;38145;53.182;6.284;2022-07-09T05:29:54;17.10;99.90
52159;DHT22;38145;53.182;6.284;2022-07-09T05:32:23;17.10;99.90
52159;DHT22;38145;53.182;6.284;2022-07-09T05:34:52;17.10;99.90
52159;DHT22;38145;53.182;6.284;2022-07-09T05:37:18;17.10;99.90
52159;DHT22;38145;53.182;6.284;2022-07-09T05:39:45;17.20;99.90
52159;DHT22;38145;53.182;6.284;2022-07-09T05:42:12;17.10;99.90
52159;DHT22;38145;53.182;6.284;2022-07-09T05:44:39;17.20;99.90
52159;DHT22;38145;53.182;6.284;2022-07-09T05:47:07;17.20;99.90
52159;DHT22;38145;53.182;6.284;2022-07-09T05:49:41;17.30;99.90
52159;DHT22;38145;53.182;6.284;2022-07-09T05:52:08;17.30;99.90
52159;DHT22;38145;53.182;6.284;2022-07-09T05:54:36;17.30;99.90
52159;DHT22;38145;53.182;6.284;2022-07-09T05:57:04;17.40;99.90
52159;DHT22;38145;53.182;6.284;2022-07-09T05:59:32;17.30;99.90
52159;DHT22;38145;53.182;6.284;2022-07-09T06:01:59;17.30;99.90
52159;DHT22;38145;53.182;6.284;2022-07-09T06:04:30;17.40;99.90
52159;DHT22;38145;53.182;6.284;2022-07-09T06:06:57;17.30;99.90
52159;DHT22;38145;53.182;6.284;2022-07-09T06:09:26;17.40;99.90
52159;DHT22;38145;53.182;6.284;2022-07-09T06:11:53;17.40;99.90
52159;DHT22;38145;53.182;6.284;2022-07-09T06:14:20;17.40;99.90
52159;DHT22;38145;53.182;6.284;2022-07-09T06:16:46;17.40;99.90
52159;DHT22;38145;53.182;6.284;2022-07-09T06:19:16;17.50;99.90
52159;DHT22;38145;53.182;6.284;2022-07-09T06:21:43;17.40;99.90
52159;DHT22;38145;53.182;6.284;2022-07-09T06:24:09;17.40;99.90
52159;DHT22;38145;53.182;6.284;2022-07-09T06:26:36;17.60;99.90
52159;DHT22;38145;53.182;6.284;2022-07-09T06:29:03;17.60;99.90
52159;DHT22;38145;53.182;6.284;2022-07-09T06:31:30;17.50;99.90
52159;DHT22;38145;53.182;6.284;2022-07-09T06:33:57;17.60;99.90
52159;DHT22;38145;53.182;6.284;2022-07-09T06:36:24;17.60;99.90
52159;DHT22;38145;53.182;6.284;2022-07-09T06:38:51;17.50;99.90
52159;DHT22;38145;53.182;6.284;2022-07-09T06:41:40;17.60;99.90
52159;DHT22;38145;53.182;6.284;2022-07-09T06:44:06;17.60;99.90
52159;DHT22;38145;53.182;6.284;2022-07-09T06:46:33;17.60;99.90
52159;DHT22;38145;53.182;6.284;2022-07-09T06:49:02;17.60;99.90
52159;DHT22;38145;53.182;6.284;2022-07-09T06:51:32;17.70;99.90
52159;DHT22;38145;53.182;6.284;2022-07-09T06:53:58;17.60;99.90
52159;DHT22;38145;53.182;6.284;2022-07-09T06:56:28;17.70;99.90
52159;DHT22;38145;53.182;6.284;2022-07-09T06:58:55;17.60;99.90
52159;DHT22;38145;53.182;6.284;2022-07-09T07:01:23;17.70;99.90
52159;DHT22;38145;53.182;6.284;2022-07-09T07:03:49;17.70;99.90
52159;DHT22;38145;53.182;6.284;2022-07-09T07:06:16;17.70;99.90
52159;DHT22;38145;53.182;6.284;2022-07-09T07:08:49;17.70;99.90
52159;DHT22;38145;53.182;6.284;2022-07-09T07:11:15;17.80;99.90
52159;DHT22;38145;53.182;6.284;2022-07-09T07:13:42;17.80;99.90
52159;DHT22;38145;53.182;6.284;2022-07-09T07:16:09;17.80;99.90
52159;DHT22;38145;53.182;6.284;2022-07-09T07:18:36;17.80;99.90
52159;DHT22;38145;53.182;6.284;2022-07-09T07:21:03;17.90;99.90
52159;DHT22;38145;53.182;6.284;2022-07-09T07:23:30;17.90;99.90
52159;DHT22;38145;53.182;6.284;2022-07-09T07:25:59;18.00;99.90
52159;DHT22;38145;53.182;6.284;2022-07-09T07:28:25;18.10;99.90
52159;DHT22;38145;53.182;6.284;2022-07-09T07:30:51;18.20;99.90
52159;DHT22;38145;53.182;6.284;2022-07-09T07:33:22;18.20;99.90
52159;DHT22;38145;53.182;6.284;2022-07-09T07:35:49;18.40;99.90
52159;DHT22;38145;53.182;6.284;2022-07-09T07:38:15;18.40;99.90
52159;DHT22;38145;53.182;6.284;2022-07-09T07:40:41;18.40;99.90
52159;DHT22;38145;53.182;6.284;2022-07-09T07:43:12;18.40;99.90
52159;DHT22;38145;53.182;6.284;2022-07-09T07:45:38;18.20;99.90
52159;DHT22;38145;53.182;6.284;2022-07-09T07:48:07;18.20;99.90
52159;DHT22;38145;53.182;6.284;2022-07-09T07:50:35;18.30;99.90
52159;DHT22;38145;53.182;6.284;2022-07-09T07:53:05;18.40;99.90
52159;DHT22;38145;53.182;6.284;2022-07-09T07:55:37;18.40;99.90
52159;DHT22;38145;53.182;6.284;2022-07-09T07:58:04;18.60;99.90
52159;DHT22;38145;53.182;6.284;2022-07-09T08:00:32;19.00;99.90
52159;DHT22;38145;53.182;6.284;2022-07-09T08:02:58;19.40;99.90
52159;DHT22;38145;53.182;6.284;2022-07-09T08:05:28;19.90;99.90
52159;DHT22;38145;53.182;6.284;2022-07-09T08:08:01;20.10;99.90
52159;DHT22;38145;53.182;6.284;2022-07-09T08:10:27;20.00;99.90
52159;DHT22;38145;53.182;6.284;2022-07-09T08:12:55;19.80;99.90
52159;DHT22;38145;53.182;6.284;2022-07-09T08:15:23;19.70;99.90
52159;DHT22;38145;53.182;6.284;2022-07-09T08:17:51;19.70;99.90
52159;DHT22;38145;53.182;6.284;2022-07-09T08:20:20;19.50;99.90
52159;DHT22;38145;53.182;6.284;2022-07-09T08:22:47;19.50;99.90
52159;DHT22;38145;53.182;6.284;2022-07-09T08:25:13;19.30;99.90
52159;DHT22;38145;53.182;6.284;2022-07-09T08:27:40;19.10;99.90
52159;DHT22;38145;53.182;6.284;2022-07-09T08:30:08;19.10;99.90
52159;DHT22;38145;53.182;6.284;2022-07-09T08:32:37;19.00;99.90
52159;DHT22;38145;53.182;6.284;2022-07-09T08:35:07;19.00;99.90
52159;DHT22;38145;53.182;6.284;2022-07-09T08:37:37;19.40;99.90
52159;DHT22;38145;53.182;6.284;2022-07-09T08:40:05;19.80;99.90
52159;DHT22;38145;53.182;6.284;2022-07-09T08:42:32;19.90;99.90
52159;DHT22;38145;53.182;6.284;2022-07-09T08:45:00;19.70;99.90
52159;DHT22;38145;53.182;6.284;2022-07-09T08:47:28;19.50;99.90
52159;DHT22;38145;53.182;6.284;2022-07-09T08:49:58;19.30;99.90
52159;DHT22;38145;53.182;6.284;2022-07-09T08:52:27;19.10;99.90
52159;DHT22;38145;53.182;6.284;2022-07-09T08:54:56;19.30;99.90
52159;DHT22;38145;53.182;6.284;2022-07-09T08:57:23;19.40;99.90
52159;DHT22;38145;53.182;6.284;2022-07-09T08:59:50;19.70;99.90
52159;DHT22;38145;53.182;6.284;2022-07-09T09:02:16;20.00;99.90
52159;DHT22;38145;53.182;6.284;2022-07-09T09:04:46;20.30;99.90
52159;DHT22;38145;53.182;6.284;2022-07-09T09:07:18;20.40;99.90
52159;DHT22;38145;53.182;6.284;2022-07-09T09:09:48;20.10;99.90
52159;DHT22;38145;53.182;6.284;2022-07-09T09:12:25;19.90;99.90
52159;DHT22;38145;53.182;6.284;2022-07-09T09:14:54;19.90;99.90
52159;DHT22;38145;53.182;6.284;2022-07-09T09:17:22;19.90;99.90
52159;DHT22;38145;53.182;6.284;2022-07-09T09:19:49;19.90;99.90
52159;DHT22;38145;53.182;6.284;2022-07-09T09:22:17;19.90;99.90
52159;DHT22;38145;53.182;6.284;2022-07-09T09:24:49;19.70;99.90
52159;DHT22;38145;53.182;6.284;2022-07-09T09:27:17;19.40;99.90
52159;DHT22;38145;53.182;6.284;2022-07-09T09:29:52;19.20;99.90
52159;DHT22;38145;53.182;6.284;2022-07-09T09:32:21;19.10;99.90
52159;DHT22;38145;53.182;6.284;2022-07-09T09:34:50;19.20;99.90
52159;DHT22;38145;53.182;6.284;2022-07-09T09:37:31;19.20;99.90
52159;DHT22;38145;53.182;6.284;2022-07-09T09:39:58;19.20;99.90
52159;DHT22;38145;53.182;6.284;2022-07-09T09:42:25;19.30;99.90
52159;DHT22;38145;53.182;6.284;2022-07-09T09:44:59;19.20;99.90
52159;DHT22;38145;53.182;6.284;2022-07-09T09:47:27;19.10;99.90
52159;DHT22;38145;53.182;6.284;2022-07-09T09:49:58;19.20;99.90
52159;DHT22;38145;53.182;6.284;2022-07-09T09:52:27;19.30;99.90
52159;DHT22;38145;53.182;6.284;2022-07-09T09:54:57;19.40;99.90
52159;DHT22;38145;53.182;6.284;2022-07-09T09:57:26;19.40;99.90
52159;DHT22;38145;53.182;6.284;2022-07-09T09:59:54;19.50;99.90
52159;DHT22;38145;53.182;6.284;2022-07-09T10:02:22;19.80;99.90
52159;DHT22;38145;53.182;6.284;2022-07-09T10:04:51;19.80;99.90
52159;DHT22;38145;53.182;6.284;2022-07-09T10:07:17;19.80;99.90
52159;DHT22;38145;53.182;6.284;2022-07-09T10:09:58;19.70;99.90
52159;DHT22;38145;53.182;6.284;2022-07-09T10:12:27;19.80;99.90
52159;DHT22;38145;53.182;6.284;2022-07-09T10:15:00;19.90;99.90
52159;DHT22;38145;53.182;6.284;2022-07-09T10:17:28;19.60;99.90
52159;DHT22;38145;53.182;6.284;2022-07-09T10:20:01;18.90;99.90
52159;DHT22;38145;53.182;6.284;2022-07-09T10:22:44;18.50;99.90
52159;DHT22;38145;53.182;6.284;2022-07-09T10:25:31;18.20;99.90
52159;DHT22;38145;53.182;6.284;2022-07-09T10:28:15;18.10;99.90
52159;DHT22;38145;53.182;6.284;2022-07-09T10:30:46;17.80;99.90
52159;DHT22;38145;53.182;6.284;2022-07-09T10:33:30;17.70;99.90
52159;DHT22;38145;53.182;6.284;2022-07-09T10:36:08;17.70;99.90
52159;DHT22;38145;53.182;6.284;2022-07-09T10:38:37;17.60;99.90
52159;DHT22;38145;53.182;6.284;2022-07-09T10:41:05;17.50;99.90
52159;DHT22;38145;53.182;6.284;2022-07-09T10:43:39;17.40;99.90
52159;DHT22;38145;53.182;6.284;2022-07-09T10:46:10;17.40;99.90
52159;DHT22;38145;53.182;6.284;2022-07-09T10:48:40;17.40;99.90
52159;DHT22;38145;53.182;6.284;2022-07-09T10:51:07;17.50;99.90
52159;DHT22;38145;53.182;6.284;2022-07-09T10:53:35;17.50;99.90
52159;DHT22;38145;53.182;6.284;2022-07-09T10:56:05;17.70;99.90
52159;DHT22;38145;53.182;6.284;2022-07-09T10:58:37;17.90;99.90
52159;DHT22;38145;53.182;6.284;2022-07-09T11:01:04;18.10;99.90
52159;DHT22;38145;53.182;6.284;2022-07-09T11:03:32;18.20;99.90
52159;DHT22;38145;53.182;6.284;2022-07-09T11:05:59;18.30;99.90
52159;DHT22;38145;53.182;6.284;2022-07-09T11:08:29;18.40;99.90
52159;DHT22;38145;53.182;6.284;2022-07-09T11:10:56;18.50;99.90
52159;DHT22;38145;53.182;6.284;2022-07-09T11:13:28;18.70;99.90
52159;DHT22;38145;53.182;6.284;2022-07-09T11:15:59;18.80;99.90
52159;DHT22;38145;53.182;6.284;2022-07-09T11:18:29;18.70;99.90
52159;DHT22;38145;53.182;6.284;2022-07-09T11:20:56;19.00;99.90
52159;DHT22;38145;53.182;6.284;2022-07-09T11:23:23;19.20;99.90
52159;DHT22;38145;53.182;6.284;2022-07-09T11:25:49;19.40;99.90
52159;DHT22;38145;53.182;6.284;2022-07-09T11:28:21;19.40;99.90
52159;DHT22;38145;53.182;6.284;2022-07-09T11:31:04;19.30;99.90
52159;DHT22;38145;53.182;6.284;2022-07-09T11:33:32;19.50;99.90
52159;DHT22;38145;53.182;6.284;2022-07-09T11:36:19;19.70;99.90
52159;DHT22;38145;53.182;6.284;2022-07-09T11:38:53;19.60;99.90
52159;DHT22;38145;53.182;6.284;2022-07-09T11:41:21;19.40;99.90
52159;DHT22;38145;53.182;6.284;2022-07-09T11:43:50;19.30;99.90
52159;DHT22;38145;53.182;6.284;2022-07-09T11:46:18;19.40;99.90
52159;DHT22;38145;53.182;6.284;2022-07-09T11:48:51;19.50;99.90
52159;DHT22;38145;53.182;6.284;2022-07-09T11:51:31;19.40;99.90
52159;DHT22;38145;53.182;6.284;2022-07-09T11:54:05;19.40;99.90
52159;DHT22;38145;53.182;6.284;2022-07-09T11:56:47;19.70;99.90
52159;DHT22;38145;53.182;6.284;2022-07-09T11:59:26;19.60;99.90
52159;DHT22;38145;53.182;6.284;2022-07-09T12:01:56;19.50;99.90
52159;DHT22;38145;53.182;6.284;2022-07-09T12:04:23;19.30;99.90
52159;DHT22;38145;53.182;6.284;2022-07-09T12:06:51;19.50;99.90
52159;DHT22;38145;53.182;6.284;2022-07-09T12:09:28;19.60;99.90
52159;DHT22;38145;53.182;6.284;2022-07-09T12:11:55;19.70;99.90
52159;DHT22;38145;53.182;6.284;2022-07-09T12:14:22;19.70;99.90
52159;DHT22;38145;53.182;6.284;2022-07-09T12:16:49;19.80;99.90
52159;DHT22;38145;53.182;6.284;2022-07-09T12:19:16;19.70;99.90
52159;DHT22;38145;53.182;6.284;2022-07-09T12:21:46;19.70;99.90
52159;DHT22;38145;53.182;6.284;2022-07-09T12:24:12;19.60;99.90
52159;DHT22;38145;53.182;6.284;2022-07-09T12:26:39;19.40;99.90
52159;DHT22;38145;53.182;6.284;2022-07-09T12:29:05;19.20;99.90
52159;DHT22;38145;53.182;6.284;2022-07-09T12:31:33;19.10;99.90
52159;DHT22;38145;53.182;6.284;2022-07-09T12:34:04;19.10;99.90
52159;DHT22;38145;53.182;6.284;2022-07-09T12:36:32;19.10;99.90
52159;DHT22;38145;53.182;6.284;2022-07-09T12:38:59;19.10;99.90
52159;DHT22;38145;53.182;6.284;2022-07-09T12:41:26;19.10;99.90
52159;DHT22;38145;53.182;6.284;2022-07-09T12:43:53;19.10;99.90
52159;DHT22;38145;53.182;6.284;2022-07-09T12:46:21;18.90;99.90
52159;DHT22;38145;53.182;6.284;2022-07-09T12:48:47;18.70;99.90
52159;DHT22;38145;53.182;6.284;2022-07-09T12:51:14;18.70;99.90
52159;DHT22;38145;53.182;6.284;2022-07-09T12:53:41;19.00;99.90
52159;DHT22;38145;53.182;6.284;2022-07-09T12:56:08;19.20;99.90
52159;DHT22;38145;53.182;6.284;2022-07-09T12:58:35;19.10;99.90
52159;DHT22;38145;53.182;6.284;2022-07-09T13:01:02;19.00;99.90
52159;DHT22;38145;53.182;6.284;2022-07-09T13:03:29;18.80;99.90
52159;DHT22;38145;53.182;6.284;2022-07-09T13:05:57;18.60;99.90
52159;DHT22;38145;53.182;6.284;2022-07-09T13:08:24;18.50;99.90
52159;DHT22;38145;53.182;6.284;2022-07-09T13:10:54;18.40;99.90
52159;DHT22;38145;53.182;6.284;2022-07-09T13:13:21;18.40;99.90
52159;DHT22;38145;53.182;6.284;2022-07-09T13:15:48;18.60;99.90
52159;DHT22;38145;53.182;6.284;2022-07-09T13:18:16;18.60;99.90
52159;DHT22;38145;53.182;6.284;2022-07-09T13:20:45;18.50;99.90
52159;DHT22;38145;53.182;6.284;2022-07-09T13:23:12;18.50;99.90
52159;DHT22;38145;53.182;6.284;2022-07-09T13:25:39;18.40;99.90
52159;DHT22;38145;53.182;6.284;2022-07-09T13:28:06;18.40;99.90
52159;DHT22;38145;53.182;6.284;2022-07-09T13:30:35;18.50;99.90
52159;DHT22;38145;53.182;6.284;2022-07-09T13:33:02;18.40;99.90
52159;DHT22;38145;53.182;6.284;2022-07-09T13:35:28;18.40;99.90
52159;DHT22;38145;53.182;6.284;2022-07-09T13:37:56;18.30;99.90
52159;DHT22;38145;53.182;6.284;2022-07-09T13:40:23;18.20;99.90
52159;DHT22;38145;53.182;6.284;2022-07-09T13:42:51;18.10;99.90
52159;DHT22;38145;53.182;6.284;2022-07-09T13:45:18;18.00;99.90
52159;DHT22;38145;53.182;6.284;2022-07-09T13:47:49;17.90;99.90
52159;DHT22;38145;53.182;6.284;2022-07-09T13:50:17;17.90;99.90
52159;DHT22;38145;53.182;6.284;2022-07-09T13:52:43;17.90;99.90
52159;DHT22;38145;53.182;6.284;2022-07-09T13:55:10;17.80;99.90
52159;DHT22;38145;53.182;6.284;2022-07-09T13:57:37;17.80;99.90
52159;DHT22;38145;53.182;6.284;2022-07-09T14:00:05;17.80;99.90
52159;DHT22;38145;53.182;6.284;2022-07-09T14:02:33;17.90;99.90
52159;DHT22;38145;53.182;6.284;2022-07-09T14:05:02;18.00;99.90
52159;DHT22;38145;53.182;6.284;2022-07-09T14:07:30;17.90;99.90
52159;DHT22;38145;53.182;6.284;2022-07-09T14:09:58;17.80;99.90
52159;DHT22;38145;53.182;6.284;2022-07-09T14:12:32;17.70;99.90
52159;DHT22;38145;53.182;6.284;2022-07-09T14:14:59;17.60;99.90
52159;DHT22;38145;53.182;6.284;2022-07-09T14:17:26;17.60;99.90
52159;DHT22;38145;53.182;6.284;2022-07-09T14:19:53;17.50;99.90
52159;DHT22;38145;53.182;6.284;2022-07-09T14:22:21;17.40;99.90
52159;DHT22;38145;53.182;6.284;2022-07-09T14:24:47;17.40;99.90
52159;DHT22;38145;53.182;6.284;2022-07-09T14:27:13;17.60;99.90
52159;DHT22;38145;53.182;6.284;2022-07-09T14:29:41;17.60;99.90
52159;DHT22;38145;53.182;6.284;2022-07-09T14:32:08;17.70;99.90
52159;DHT22;38145;53.182;6.284;2022-07-09T14:34:35;17.60;99.90
52159;DHT22;38145;53.182;6.284;2022-07-09T14:37:03;17.70;99.90
52159;DHT22;38145;53.182;6.284;2022-07-09T14:39:29;17.70;99.90
52159;DHT22;38145;53.182;6.284;2022-07-09T14:41:56;17.70;99.90
52159;DHT22;38145;53.182;6.284;2022-07-09T14:44:23;17.70;99.90
52159;DHT22;38145;53.182;6.284;2022-07-09T14:46:50;17.60;99.90
52159;DHT22;38145;53.182;6.284;2022-07-09T14:49:18;17.60;99.90
52159;DHT22;38145;53.182;6.284;2022-07-09T14:51:46;17.70;99.90
52159;DHT22;38145;53.182;6.284;2022-07-09T14:54:12;17.70;99.90
52159;DHT22;38145;53.182;6.284;2022-07-09T14:56:40;17.80;99.90
52159;DHT22;38145;53.182;6.284;2022-07-09T14:59:09;17.70;99.90
52159;DHT22;38145;53.182;6.284;2022-07-09T15:01:36;17.70;99.90
52159;DHT22;38145;53.182;6.284;2022-07-09T15:04:04;17.80;99.90
52159;DHT22;38145;53.182;6.284;2022-07-09T15:06:32;17.60;99.90
52159;DHT22;38145;53.182;6.284;2022-07-09T15:08:59;17.60;99.90
52159;DHT22;38145;53.182;6.284;2022-07-09T15:11:26;17.60;99.90
52159;DHT22;38145;53.182;6.284;2022-07-09T15:13:53;17.50;99.90
52159;DHT22;38145;53.182;6.284;2022-07-09T15:16:19;17.60;99.90
52159;DHT22;38145;53.182;6.284;2022-07-09T15:18:46;17.60;99.90
52159;DHT22;38145;53.182;6.284;2022-07-09T15:21:14;17.70;99.90
52159;DHT22;38145;53.182;6.284;2022-07-09T15:23:43;17.60;99.90
52159;DHT22;38145;53.182;6.284;2022-07-09T15:26:11;17.50;99.90
52159;DHT22;38145;53.182;6.284;2022-07-09T15:28:38;17.60;99.90
52159;DHT22;38145;53.182;6.284;2022-07-09T15:31:05;17.60;99.90
52159;DHT22;38145;53.182;6.284;2022-07-09T15:33:34;17.60;99.90
52159;DHT22;38145;53.182;6.284;2022-07-09T15:36:01;17.80;99.90
52159;DHT22;38145;53.182;6.284;2022-07-09T15:38:30;17.80;99.90